sensor_id;sensor_type;location;lat;lon;timestamp;temperature;humidity
7388;DHT22;3735;50.136;11.062;2023-04-01T00:01:03;8.90;99.90
7388;DHT22;3735;50.136;11.062;2023-04-01T00:03:30;8.90;99.90
7388;DHT22;3735;50.136;11.062;2023-04-01T00:05:59;8.90;99.90
7388;DHT22;3735;50.136;11.062;2023-04-01T00:08:26;8.90;99.90
7388;DHT22;3735;50.136;11.062;2023-04-01T00:10:53;8.90;99.90
7388;DHT22;3735;50.136;11.062;2023-04-01T00:13:20;8.90;99.90
7388;DHT22;3735;50.136;11.062;2023-04-01T00:15:46;8.90;99.90
7388;DHT22;3735;50.136;11.062;2023-04-01T00:18:13;8.90;99.90
7388;DHT22;3735;50.136;11.062;2023-04-01T00:20:39;8.90;99.90
7388;DHT22;3735;50.136;11.062;2023-04-01T00:23:09;8.90;99.90
7388;DHT22;3735;50.136;11.062;2023-04-01T00:25:37;9.00;99.90
7388;DHT22;3735;50.136;11.062;2023-04-01T00:28:03;8.90;99.90
7388;DHT22;3735;50.136;11.062;2023-04-01T00:30:29;9.00;99.90
7388;DHT22;3735;50.136;11.062;2023-04-01T00:32:55;8.90;99.90
7388;DHT22;3735;50.136;11.062;2023-04-01T00:35:21;9.00;99.90
7388;DHT22;3735;50.136;11.062;2023-04-01T00:37:48;9.00;99.90
7388;DHT22;3735;50.136;11.062;2023-04-01T00:40:26;9.00;99.90
7388;DHT22;3735;50.136;11.062;2023-04-01T00:42:55;9.00;99.90
7388;DHT22;3735;50.136;11.062;2023-04-01T00:48:08;9.00;99.90
7388;DHT22;3735;50.136;11.062;2023-04-01T00:50:48;9.00;99.90
7388;DHT22;3735;50.136;11.062;2023-04-01T00:53:17;9.00;99.90
7388;DHT22;3735;50.136;11.062;2023-04-01T00:56:18;9.00;99.90
7388;DHT22;3735;50.136;11.062;2023-04-01T00:58:47;9.00;99.90
7388;DHT22;3735;50.136;11.062;2023-04-01T01:01:16;8.90;99.90
7388;DHT22;3735;50.136;11.062;2023-04-01T01:03:42;8.90;99.90
7388;DHT22;3735;50.136;11.062;2023-04-01T01:06:15;8.90;99.90
7388;DHT22;3735;50.136;11.062;2023-04-01T01:17:38;8.80;99.90
7388;DHT22;3735;50.136;11.062;2023-04-01T01:38:08;8.90;99.90
7388;DHT22;3735;50.136;11.062;2023-04-01T01:40:41;8.90;99.90
7388;DHT22;3735;50.136;11.062;2023-04-01T01:43:12;8.90;99.90
7388;DHT22;3735;50.136;11.062;2023-04-01T01:45:46;8.80;99.90
7388;DHT22;3735;50.136;11.062;2023-04-01T01:48:16;8.80;99.90
7388;DHT22;3735;50.136;11.062;2023-04-01T01:50:45;8.80;99.90
7388;DHT22;3735;50.136;11.062;2023-04-01T01:53:13;8.70;99.90
7388;DHT22;3735;50.136;11.062;2023-04-01T01:55:45;8.70;99.90
7388;DHT22;3735;50.136;11.062;2023-04-01T02:01:17;8.80;99.90
7388;DHT22;3735;50.136;11.062;2023-04-01T02:03:50;8.90;99.90
7388;DHT22;3735;50.136;11.062;2023-04-01T02:06:20;8.90;99.90
7388;DHT22;3735;50.136;11.062;2023-04-01T02:08:54;9.00;99.90
7388;DHT22;3735;50.136;11.062;2023-04-01T02:11:32;9.00;99.90
7388;DHT22;3735;50.136;11.062;2023-04-01T02:14:22;9.00;99.90
7388;DHT22;3735;50.136;11.062;2023-04-01T02:16:59;9.00;99.90
7388;DHT22;3735;50.136;11.062;2023-04-01T02:19:38;9.10;99.90
7388;DHT22;3735;50.136;11.062;2023-04-01T02:22:09;9.10;99.90
7388;DHT22;3735;50.136;11.062;2023-04-01T02:24:40;9.10;99.90
7388;DHT22;3735;50.136;11.062;2023-04-01T02:27:09;9.10;99.90
7388;DHT22;3735;50.136;11.062;2023-04-01T02:29:36;9.10;99.90
7388;DHT22;3735;50.136;11.062;2023-04-01T02:32:02;9.10;99.90
7388;DHT22;3735;50.136;11.062;2023-04-01T02:34:30;9.10;99.90
7388;DHT22;3735;50.136;11.062;2023-04-01T02:36:56;9.00;99.90
7388;DHT22;3735;50.136;11.062;2023-04-01T02:39:22;9.00;99.90
7388;DHT22;3735;50.136;11.062;2023-04-01T02:41:51;9.00;99.90
7388;DHT22;3735;50.136;11.062;2023-04-01T02:44:17;9.10;99.90
7388;DHT22;3735;50.136;11.062;2023-04-01T02:46:43;9.10;99.90
7388;DHT22;3735;50.136;11.062;2023-04-01T02:49:10;9.00;99.90
7388;DHT22;3735;50.136;11.062;2023-04-01T02:51:36;9.00;99.90
7388;DHT22;3735;50.136;11.062;2023-04-01T02:54:03;9.00;99.90
7388;DHT22;3735;50.136;11.062;2023-04-01T02:56:28;9.00;99.90
7388;DHT22;3735;50.136;11.062;2023-04-01T02:58:55;9.00;99.90
7388;DHT22;3735;50.136;11.062;2023-04-01T03:01:21;9.00;99.90
7388;DHT22;3735;50.136;11.062;2023-04-01T03:03:48;9.00;99.90
7388;DHT22;3735;50.136;11.062;2023-04-01T03:06:15;9.00;99.90
7388;DHT22;3735;50.136;11.062;2023-04-01T03:08:42;9.00;99.90
7388;DHT22;3735;50.136;11.062;2023-04-01T03:11:09;9.00;99.90
7388;DHT22;3735;50.136;11.062;2023-04-01T03:13:36;9.00;99.90
7388;DHT22;3735;50.136;11.062;2023-04-01T03:16:02;9.00;99.90
7388;DHT22;3735;50.136;11.062;2023-04-01T03:18:28;9.00;99.90
7388;DHT22;3735;50.136;11.062;2023-04-01T03:20:54;9.00;99.90
7388;DHT22;3735;50.136;11.062;2023-04-01T03:23:20;9.00;99.90
7388;DHT22;3735;50.136;11.062;2023-04-01T03:25:47;9.00;99.90
7388;DHT22;3735;50.136;11.062;2023-04-01T03:28:13;9.00;99.90
7388;DHT22;3735;50.136;11.062;2023-04-01T03:30:39;9.00;99.90
7388;DHT22;3735;50.136;11.062;2023-04-01T03:33:05;9.00;99.90
7388;DHT22;3735;50.136;11.062;2023-04-01T03:35:31;8.90;99.90
7388;DHT22;3735;50.136;11.062;2023-04-01T03:37:58;8.80;99.90
7388;DHT22;3735;50.136;11.062;2023-04-01T03:40:24;8.80;99.90
7388;DHT22;3735;50.136;11.062;2023-04-01T03:42:51;8.70;99.90
7388;DHT22;3735;50.136;11.062;2023-04-01T03:45:18;8.70;99.90
7388;DHT22;3735;50.136;11.062;2023-04-01T03:47:43;8.70;99.90
7388;DHT22;3735;50.136;11.062;2023-04-01T03:50:09;8.70;99.90
7388;DHT22;3735;50.136;11.062;2023-04-01T03:52:36;8.70;99.90
7388;DHT22;3735;50.136;11.062;2023-04-01T03:55:02;8.70;99.90
7388;DHT22;3735;50.136;11.062;2023-04-01T03:57:30;8.70;99.90
7388;DHT22;3735;50.136;11.062;2023-04-01T03:59:56;8.70;99.90
7388;DHT22;3735;50.136;11.062;2023-04-01T04:02:22;8.70;99.90
7388;DHT22;3735;50.136;11.062;2023-04-01T04:04:48;8.80;99.90
7388;DHT22;3735;50.136;11.062;2023-04-01T04:07:13;8.80;99.90
7388;DHT22;3735;50.136;11.062;2023-04-01T04:09:39;8.80;99.90
7388;DHT22;3735;50.136;11.062;2023-04-01T04:12:06;8.90;99.90
7388;DHT22;3735;50.136;11.062;2023-04-01T04:14:32;8.90;99.90
7388;DHT22;3735;50.136;11.062;2023-04-01T04:16:58;8.80;99.90
7388;DHT22;3735;50.136;11.062;2023-04-01T04:19:23;8.80;99.90
7388;DHT22;3735;50.136;11.062;2023-04-01T04:21:49;8.80;99.90
7388;DHT22;3735;50.136;11.062;2023-04-01T04:24:15;8.90;99.90
7388;DHT22;3735;50.136;11.062;2023-04-01T04:26:41;8.90;99.90
7388;DHT22;3735;50.136;11.062;2023-04-01T04:29:06;8.90;99.90
7388;DHT22;3735;50.136;11.062;2023-04-01T04:31:32;8.90;99.90
7388;DHT22;3735;50.136;11.062;2023-04-01T04:33:59;8.90;99.90
7388;DHT22;3735;50.136;11.062;2023-04-01T04:36:28;8.90;99.90
7388;DHT22;3735;50.136;11.062;2023-04-01T04:38:54;8.90;99.90
7388;DHT22;3735;50.136;11.062;2023-04-01T04:41:20;8.90;99.90
7388;DHT22;3735;50.136;11.062;2023-04-01T04:43:55;8.90;99.90
7388;DHT22;3735;50.136;11.062;2023-04-01T04:46:22;8.90;99.90
7388;DHT22;3735;50.136;11.062;2023-04-01T04:48:48;9.00;99.90
7388;DHT22;3735;50.136;11.062;2023-04-01T04:51:15;8.90;99.90
7388;DHT22;3735;50.136;11.062;2023-04-01T04:53:43;8.90;99.90
7388;DHT22;3735;50.136;11.062;2023-04-01T04:56:09;8.90;99.90
7388;DHT22;3735;50.136;11.062;2023-04-01T04:58:36;8.90;99.90
7388;DHT22;3735;50.136;11.062;2023-04-01T05:01:08;8.90;99.90
7388;DHT22;3735;50.136;11.062;2023-04-01T05:03:35;8.90;99.90
7388;DHT22;3735;50.136;11.062;2023-04-01T05:06:01;8.90;99.90
7388;DHT22;3735;50.136;11.062;2023-04-01T05:08:27;8.90;99.90
7388;DHT22;3735;50.136;11.062;2023-04-01T05:10:53;8.90;99.90
7388;DHT22;3735;50.136;11.062;2023-04-01T05:13:19;9.00;99.90
7388;DHT22;3735;50.136;11.062;2023-04-01T05:15:45;9.00;99.90
7388;DHT22;3735;50.136;11.062;2023-04-01T05:18:11;9.00;99.90
7388;DHT22;3735;50.136;11.062;2023-04-01T05:20:37;9.00;99.90
7388;DHT22;3735;50.136;11.062;2023-04-01T05:23:03;9.10;99.90
7388;DHT22;3735;50.136;11.062;2023-04-01T05:25:29;9.10;99.90
7388;DHT22;3735;50.136;11.062;2023-04-01T05:27:54;9.10;99.90
7388;DHT22;3735;50.136;11.062;2023-04-01T05:30:20;9.20;99.90
7388;DHT22;3735;50.136;11.062;2023-04-01T05:32:46;9.30;99.90
7388;DHT22;3735;50.136;11.062;2023-04-01T05:35:12;9.30;99.90
7388;DHT22;3735;50.136;11.062;2023-04-01T05:37:38;9.30;99.90
7388;DHT22;3735;50.136;11.062;2023-04-01T05:40:04;9.30;99.90
7388;DHT22;3735;50.136;11.062;2023-04-01T05:42:30;9.30;99.90
7388;DHT22;3735;50.136;11.062;2023-04-01T05:44:56;9.20;99.90
7388;DHT22;3735;50.136;11.062;2023-04-01T05:47:22;9.20;99.90
7388;DHT22;3735;50.136;11.062;2023-04-01T05:49:48;9.30;99.90
7388;DHT22;3735;50.136;11.062;2023-04-01T05:52:14;9.30;99.90
7388;DHT22;3735;50.136;11.062;2023-04-01T05:54:40;9.30;99.90
7388;DHT22;3735;50.136;11.062;2023-04-01T05:57:06;9.30;99.90
7388;DHT22;3735;50.136;11.062;2023-04-01T05:59:31;9.30;99.90
7388;DHT22;3735;50.136;11.062;2023-04-01T06:01:57;9.20;99.90
7388;DHT22;3735;50.136;11.062;2023-04-01T06:04:24;9.20;99.90
7388;DHT22;3735;50.136;11.062;2023-04-01T06:06:50;9.10;99.90
7388;DHT22;3735;50.136;11.062;2023-04-01T06:09:26;9.00;99.90
7388;DHT22;3735;50.136;11.062;2023-04-01T06:12:08;9.00;99.90
7388;DHT22;3735;50.136;11.062;2023-04-01T06:15:06;9.00;99.90
7388;DHT22;3735;50.136;11.062;2023-04-01T06:23:49;9.00;99.90
7388;DHT22;3735;50.136;11.062;2023-04-01T06:47:55;10.00;99.90
7388;DHT22;3735;50.136;11.062;2023-04-01T06:53:12;10.10;99.90
7388;DHT22;3735;50.136;11.062;2023-04-01T06:55:48;10.30;99.90
7388;DHT22;3735;50.136;11.062;2023-04-01T06:58:30;10.40;99.90
7388;DHT22;3735;50.136;11.062;2023-04-01T07:01:04;10.50;99.90
7388;DHT22;3735;50.136;11.062;2023-04-01T07:03:40;10.40;99.90
7388;DHT22;3735;50.136;11.062;2023-04-01T07:06:33;10.30;99.90
7388;DHT22;3735;50.136;11.062;2023-04-01T07:09:06;10.40;99.90
7388;DHT22;3735;50.136;11.062;2023-04-01T07:11:38;10.40;99.90
7388;DHT22;3735;50.136;11.062;2023-04-01T07:14:17;10.30;99.90
7388;DHT22;3735;50.136;11.062;2023-04-01T07:17:08;10.20;99.90
7388;DHT22;3735;50.136;11.062;2023-04-01T07:19:47;10.20;99.90
7388;DHT22;3735;50.136;11.062;2023-04-01T07:22:32;10.10;99.90
7388;DHT22;3735;50.136;11.062;2023-04-01T07:25:24;10.00;99.90
7388;DHT22;3735;50.136;11.062;2023-04-01T07:27:56;10.10;99.90
7388;DHT22;3735;50.136;11.062;2023-04-01T07:31:16;10.30;99.90
7388;DHT22;3735;50.136;11.062;2023-04-01T07:37:12;10.70;99.90
7388;DHT22;3735;50.136;11.062;2023-04-01T07:45:58;10.90;99.90
7388;DHT22;3735;50.136;11.062;2023-04-01T08:00:44;10.20;99.90
7388;DHT22;3735;50.136;11.062;2023-04-01T08:17:26;9.30;99.90
7388;DHT22;3735;50.136;11.062;2023-04-01T08:20:28;9.30;99.90
7388;DHT22;3735;50.136;11.062;2023-04-01T08:26:26;9.40;99.90
7388;DHT22;3735;50.136;11.062;2023-04-01T08:29:02;9.50;99.90
7388;DHT22;3735;50.136;11.062;2023-04-01T08:34:36;10.10;99.90
7388;DHT22;3735;50.136;11.062;2023-04-01T08:37:17;10.30;99.90
7388;DHT22;3735;50.136;11.062;2023-04-01T08:39:55;10.70;99.90
7388;DHT22;3735;50.136;11.062;2023-04-01T08:48:19;11.80;99.90
7388;DHT22;3735;50.136;11.062;2023-04-01T08:51:10;12.10;99.90
7388;DHT22;3735;50.136;11.062;2023-04-01T08:57:07;11.70;99.90
7388;DHT22;3735;50.136;11.062;2023-04-01T09:12:00;11.80;99.90
7388;DHT22;3735;50.136;11.062;2023-04-01T09:18:32;11.00;99.90
7388;DHT22;3735;50.136;11.062;2023-04-01T09:21:28;10.60;99.90
7388;DHT22;3735;50.136;11.062;2023-04-01T09:30:01;10.50;99.90
7388;DHT22;3735;50.136;11.062;2023-04-01T09:38:23;10.10;99.90
7388;DHT22;3735;50.136;11.062;2023-04-01T09:43:27;10.00;99.90
7388;DHT22;3735;50.136;11.062;2023-04-01T10:00:55;10.80;99.90
7388;DHT22;3735;50.136;11.062;2023-04-01T10:28:06;10.10;99.90
7388;DHT22;3735;50.136;11.062;2023-04-01T10:31:06;10.00;99.90
7388;DHT22;3735;50.136;11.062;2023-04-01T10:37:32;10.20;99.90
7388;DHT22;3735;50.136;11.062;2023-04-01T10:58:24;9.90;99.90
7388;DHT22;3735;50.136;11.062;2023-04-01T11:04:52;10.20;99.90
7388;DHT22;3735;50.136;11.062;2023-04-01T11:29:27;9.10;99.90
7388;DHT22;3735;50.136;11.062;2023-04-01T11:44:21;9.50;99.90
7388;DHT22;3735;50.136;11.062;2023-04-01T12:09:49;9.60;99.90
7388;DHT22;3735;50.136;11.062;2023-04-01T12:12:32;9.60;99.90
7388;DHT22;3735;50.136;11.062;2023-04-01T12:15:29;9.50;99.90
7388;DHT22;3735;50.136;11.062;2023-04-01T12:18:23;9.50;99.90
7388;DHT22;3735;50.136;11.062;2023-04-01T12:27:27;9.90;99.90
7388;DHT22;3735;50.136;11.062;2023-04-01T12:30:13;10.10;99.90
7388;DHT22;3735;50.136;11.062;2023-04-01T12:38:38;10.10;99.90
7388;DHT22;3735;50.136;11.062;2023-04-01T12:41:55;10.10;99.90
7388;DHT22;3735;50.136;11.062;2023-04-01T12:57:23;10.10;99.90
7388;DHT22;3735;50.136;11.062;2023-04-01T13:03:16;10.40;99.90
7388;DHT22;3735;50.136;11.062;2023-04-01T13:09:07;10.40;99.90
7388;DHT22;3735;50.136;11.062;2023-04-01T13:12:27;10.40;99.90
7388;DHT22;3735;50.136;11.062;2023-04-01T13:15:08;10.50;99.90
7388;DHT22;3735;50.136;11.062;2023-04-01T13:18:14;10.70;99.90
7388;DHT22;3735;50.136;11.062;2023-04-01T13:29:14;10.80;99.90
7388;DHT22;3735;50.136;11.062;2023-04-01T13:31:52;10.70;99.90
7388;DHT22;3735;50.136;11.062;2023-04-01T13:43:35;10.00;99.90
7388;DHT22;3735;50.136;11.062;2023-04-01T14:07:32;9.90;99.90
7388;DHT22;3735;50.136;11.062;2023-04-01T14:28:14;9.90;99.90
7388;DHT22;3735;50.136;11.062;2023-04-01T14:34:15;9.80;99.90
7388;DHT22;3735;50.136;11.062;2023-04-01T14:49:46;9.90;99.90
7388;DHT22;3735;50.136;11.062;2023-04-01T14:54:51;9.90;99.90
7388;DHT22;3735;50.136;11.062;2023-04-01T14:57:25;9.90;99.90
7388;DHT22;3735;50.136;11.062;2023-04-01T15:00:02;9.90;99.90
7388;DHT22;3735;50.136;11.062;2023-04-01T15:02:45;9.90;99.90
7388;DHT22;3735;50.136;11.062;2023-04-01T15:08:15;9.70;99.90
7388;DHT22;3735;50.136;11.062;2023-04-01T15:11:15;9.60;99.90
7388;DHT22;3735;50.136;11.062;2023-04-01T15:14:11;9.60;99.90
7388;DHT22;3735;50.136;11.062;2023-04-01T15:31:15;9.60;99.90
7388;DHT22;3735;50.136;11.062;2023-04-01T15:43:03;9.40;99.90
7388;DHT22;3735;50.136;11.062;2023-04-01T15:48:57;9.40;99.90
7388;DHT22;3735;50.136;11.062;2023-04-01T15:54:23;9.40;99.90
7388;DHT22;3735;50.136;11.062;2023-04-01T16:20:22;9.20;99.90
7388;DHT22;3735;50.136;11.062;2023-04-01T16:23:04;9.30;99.90
7388;DHT22;3735;50.136;11.062;2023-04-01T16:26:05;9.30;99.90
7388;DHT22;3735;50.136;11.062;2023-04-01T16:28:53;9.20;99.90
7388;DHT22;3735;50.136;11.062;2023-04-01T16:31:35;9.20;99.90
7388;DHT22;3735;50.136;11.062;2023-04-01T16:37:27;9.30;99.90
7388;DHT22;3735;50.136;11.062;2023-04-01T16:46:32;9.30;99.90
7388;DHT22;3735;50.136;11.062;2023-04-01T16:51:57;9.30;99.90
7388;DHT22;3735;50.136;11.062;2023-04-01T16:59:46;9.20;99.90
7388;DHT22;3735;50.136;11.062;2023-04-01T17:02:45;9.20;99.90
7388;DHT22;3735;50.136;11.062;2023-04-01T17:05:17;9.20;99.90
7388;DHT22;3735;50.136;11.062;2023-04-01T17:10:57;9.10;99.90
7388;DHT22;3735;50.136;11.062;2023-04-01T17:27:48;9.00;99.90
7388;DHT22;3735;50.136;11.062;2023-04-01T17:30:38;8.90;99.90
7388;DHT22;3735;50.136;11.062;2023-04-01T17:47:36;8.80;99.90
7388;DHT22;3735;50.136;11.062;2023-04-01T17:56:22;8.80;99.90
7388;DHT22;3735;50.136;11.062;2023-04-01T17:59:36;8.80;99.90
7388;DHT22;3735;50.136;11.062;2023-04-01T18:04:55;8.70;99.90
7388;DHT22;3735;50.136;11.062;2023-04-01T18:08:01;8.80;99.90
7388;DHT22;3735;50.136;11.062;2023-04-01T18:21:46;8.70;99.90
7388;DHT22;3735;50.136;11.062;2023-04-01T18:24:59;8.70;99.90
7388;DHT22;3735;50.136;11.062;2023-04-01T18:27:33;8.70;99.90
7388;DHT22;3735;50.136;11.062;2023-04-01T18:33:07;8.70;99.90
7388;DHT22;3735;50.136;11.062;2023-04-01T18:38:34;8.70;99.90
7388;DHT22;3735;50.136;11.062;2023-04-01T18:41:35;8.70;99.90
7388;DHT22;3735;50.136;11.062;2023-04-01T18:44:30;8.70;99.90
7388;DHT22;3735;50.136;11.062;2023-04-01T18:52:48;8.70;99.90
7388;DHT22;3735;50.136;11.062;2023-04-01T19:03:52;8.60;99.90
7388;DHT22;3735;50.136;11.062;2023-04-01T19:06:53;8.70;99.90
7388;DHT22;3735;50.136;11.062;2023-04-01T19:09:25;8.70;99.90
7388;DHT22;3735;50.136;11.062;2023-04-01T19:12:20;8.70;99.90
7388;DHT22;3735;50.136;11.062;2023-04-01T19:15:27;8.70;99.90
7388;DHT22;3735;50.136;11.062;2023-04-01T19:27:13;8.60;99.90
7388;DHT22;3735;50.136;11.062;2023-04-01T19:30:07;8.60;99.90
7388;DHT22;3735;50.136;11.062;2023-04-01T19:35:28;8.60;99.90
7388;DHT22;3735;50.136;11.062;2023-04-01T19:38:26;8.60;99.90
7388;DHT22;3735;50.136;11.062;2023-04-01T19:51:26;8.60;99.90
7388;DHT22;3735;50.136;11.062;2023-04-01T19:56:54;8.50;99.90
7388;DHT22;3735;50.136;11.062;2023-04-01T20:07:27;8.50;99.90
7388;DHT22;3735;50.136;11.062;2023-04-01T20:13:18;8.50;99.90
7388;DHT22;3735;50.136;11.062;2023-04-01T20:16:04;8.50;99.90
7388;DHT22;3735;50.136;11.062;2023-04-01T20:21:33;8.50;99.90
7388;DHT22;3735;50.136;11.062;2023-04-01T20:24:21;8.50;99.90
7388;DHT22;3735;50.136;11.062;2023-04-01T20:27:14;8.50;99.90
7388;DHT22;3735;50.136;11.062;2023-04-01T20:30:00;8.50;99.90
7388;DHT22;3735;50.136;11.062;2023-04-01T20:35:23;8.50;99.90
7388;DHT22;3735;50.136;11.062;2023-04-01T20:38:24;8.40;99.90
7388;DHT22;3735;50.136;11.062;2023-04-01T20:44:12;8.40;99.90
7388;DHT22;3735;50.136;11.062;2023-04-01T20:49:40;8.50;99.90
7388;DHT22;3735;50.136;11.062;2023-04-01T21:00:41;8.40;99.90
7388;DHT22;3735;50.136;11.062;2023-04-01T21:03:49;8.40;99.90
7388;DHT22;3735;50.136;11.062;2023-04-01T21:06:49;8.40;99.90
7388;DHT22;3735;50.136;11.062;2023-04-01T21:12:18;8.40;99.90
7388;DHT22;3735;50.136;11.062;2023-04-01T21:15:11;8.40;99.90
7388;DHT22;3735;50.136;11.062;2023-04-01T21:18:06;8.40;99.90
7388;DHT22;3735;50.136;11.062;2023-04-01T21:23:26;8.30;99.90
7388;DHT22;3735;50.136;11.062;2023-04-01T21:37:48;8.30;99.90
7388;DHT22;3735;50.136;11.062;2023-04-01T21:46:23;8.20;99.90
7388;DHT22;3735;50.136;11.062;2023-04-01T21:50:05;8.10;99.90
7388;DHT22;3735;50.136;11.062;2023-04-01T22:05:41;8.10;99.90
7388;DHT22;3735;50.136;11.062;2023-04-01T22:08:22;8.00;99.90
7388;DHT22;3735;50.136;11.062;2023-04-01T22:11:36;8.00;99.90
7388;DHT22;3735;50.136;11.062;2023-04-01T22:14:50;8.00;99.90
7388;DHT22;3735;50.136;11.062;2023-04-01T22:17:32;8.00;99.90
7388;DHT22;3735;50.136;11.062;2023-04-01T22:20:18;8.00;99.90
7388;DHT22;3735;50.136;11.062;2023-04-01T22:23:21;8.00;99.90
7388;DHT22;3735;50.136;11.062;2023-04-01T22:26:34;8.00;99.90
7388;DHT22;3735;50.136;11.062;2023-04-01T22:29:24;8.00;99.90
7388;DHT22;3735;50.136;11.062;2023-04-01T22:32:12;8.00;99.90
7388;DHT22;3735;50.136;11.062;2023-04-01T22:37:43;8.00;99.90
7388;DHT22;3735;50.136;11.062;2023-04-01T22:40:39;8.00;99.90
7388;DHT22;3735;50.136;11.062;2023-04-01T22:43:16;8.00;99.90
7388;DHT22;3735;50.136;11.062;2023-04-01T22:49:12;8.00;99.90
7388;DHT22;3735;50.136;11.062;2023-04-01T22:57:05;7.90;99.90
7388;DHT22;3735;50.136;11.062;2023-04-01T22:59:50;8.00;99.90
7388;DHT22;3735;50.136;11.062;2023-04-01T23:02:39;7.90;99.90
7388;DHT22;3735;50.136;11.062;2023-04-01T23:05:11;7.90;99.90
7388;DHT22;3735;50.136;11.062;2023-04-01T23:07:53;7.90;99.90
7388;DHT22;3735;50.136;11.062;2023-04-01T23:10:39;7.90;99.90
7388;DHT22;3735;50.136;11.062;2023-04-01T23:13:34;7.80;99.90
7388;DHT22;3735;50.136;11.062;2023-04-01T23:16:04;7.90;99.90
7388;DHT22;3735;50.136;11.062;2023-04-01T23:18:36;7.90;99.90
7388;DHT22;3735;50.136;11.062;2023-04-01T23:21:18;7.90;99.90
7388;DHT22;3735;50.136;11.062;2023-04-01T23:26:41;7.90;99.90
7388;DHT22;3735;50.136;11.062;2023-04-01T23:29:36;7.90;99.90
7388;DHT22;3735;50.136;11.062;2023-04-01T23:32:05;7.90;99.90
7388;DHT22;3735;50.136;11.062;2023-04-01T23:34:47;7.90;99.90
7388;DHT22;3735;50.136;11.062;2023-04-01T23:37:16;7.90;99.90
7388;DHT22;3735;50.136;11.062;2023-04-01T23:39:53;7.90;99.90
7388;DHT22;3735;50.136;11.062;2023-04-01T23:42:27;7.90;99.90
7388;DHT22;3735;50.136;11.062;2023-04-01T23:44:58;7.90;99.90
7388;DHT22;3735;50.136;11.062;2023-04-01T23:50:10;7.90;99.90
7388;DHT22;3735;50.136;11.062;2023-04-01T23:52:43;7.90;99.90
